Time;durP1;ratioP1;P1;durP2;ratioP2;P2;SDS_P1;SDS_P2;PMS_P1;PMS_P2;Temp;Humidity;BMP_temperature;BMP_pressure;BME280_temperature;BME280_humidity;BME280_pressure;Samples;Min_cycle;Max_cycle;Signal;HPM_P1;HPM_P2
2021/08/09 00:02:13;;;;;;;1.40;1.30;;;;;;;;;;5044822;28;20178;-86
2021/08/09 00:04:39;;;;;;;1.90;1.70;;;;;;;;;;5029564;28;20417;-85
2021/08/09 00:07:07;;;;;;;1.70;1.60;;;;;;;;;;5047260;28;20440;-85
2021/08/09 00:09:33;;;;;;;2.65;1.90;;;;;;;;;;5040340;28;20269;-86
2021/08/09 00:12:00;;;;;;;3.67;1.50;;;;;;;;;;5034285;28;20192;-85
2021/08/09 00:14:26;;;;;;;2.80;1.40;;;;;;;;;;5032211;28;20208;-86
2021/08/09 00:16:52;;;;;;;2.22;1.10;;;;;;;;;;5045112;28;20169;-86
2021/08/09 00:19:18;;;;;;;3.17;1.52;;;;;;;;;;5034220;28;20233;-86
2021/08/09 00:21:44;;;;;;;2.50;1.35;;;;;;;;;;5041255;28;20264;-85
2021/08/09 00:24:10;;;;;;;3.28;1.60;;;;;;;;;;5045385;28;20194;-85
2021/08/09 00:26:36;;;;;;;1.45;1.35;;;;;;;;;;5046134;28;20258;-85
2021/08/09 00:29:02;;;;;;;1.48;1.20;;;;;;;;;;5045390;28;20204;-86
2021/08/09 00:31:28;;;;;;;4.47;1.75;;;;;;;;;;5042185;28;20248;-86
2021/08/09 00:33:55;;;;;;;3.05;1.80;;;;;;;;;;5046423;28;20206;-85
2021/08/09 00:36:21;;;;;;;2.22;1.65;;;;;;;;;;5047006;28;20178;-86
2021/08/09 00:38:47;;;;;;;1.85;1.42;;;;;;;;;;5044499;28;20702;-85
2021/08/09 00:41:13;;;;;;;1.77;1.35;;;;;;;;;;5045386;28;20193;-86
2021/08/09 00:43:39;;;;;;;2.40;1.52;;;;;;;;;;5029462;28;20253;-86
2021/08/09 00:46:05;;;;;;;1.63;1.53;;;;;;;;;;5035972;28;20239;-85
2021/08/09 00:48:34;;;;;;;5.95;2.38;;;;;;;;;;5040365;28;20450;-86
2021/08/09 00:51:00;;;;;;;2.40;2.05;;;;;;;;;;5044261;28;20637;-85
2021/08/09 00:53:26;;;;;;;4.57;1.65;;;;;;;;;;5045560;28;20208;-85
2021/08/09 00:55:52;;;;;;;2.80;1.60;;;;;;;;;;5043510;28;20244;-85
2021/08/09 00:58:19;;;;;;;1.70;1.38;;;;;;;;;;5033029;28;20432;-85
2021/08/09 01:00:45;;;;;;;3.00;1.45;;;;;;;;;;5039895;28;20173;-86
2021/08/09 01:03:11;;;;;;;1.52;1.20;;;;;;;;;;5046270;28;20277;-86
2021/08/09 01:05:37;;;;;;;1.73;1.27;;;;;;;;;;5044495;28;20178;-86
2021/08/09 01:08:10;;;;;;;3.38;1.40;;;;;;;;;;5026925;28;20704;-86
2021/08/09 01:10:41;;;;;;;2.75;1.38;;;;;;;;;;5031252;28;20181;-86
2021/08/09 01:13:13;;;;;;;2.33;1.48;;;;;;;;;;5042237;28;20209;-85
2021/08/09 01:15:43;;;;;;;2.95;1.70;;;;;;;;;;5043408;28;20184;-86
2021/08/09 01:18:09;;;;;;;2.22;1.80;;;;;;;;;;5043088;28;20708;-85
2021/08/09 01:20:38;;;;;;;2.15;1.27;;;;;;;;;;5044382;28;20177;-86
2021/08/09 01:23:23;;;;;;;2.78;1.50;;;;;;;;;;5027389;28;20178;-85
2021/08/09 01:25:51;;;;;;;5.20;1.88;;;;;;;;;;5054530;28;20208;-85
2021/08/09 01:28:18;;;;;;;1.65;1.40;;;;;;;;;;5055411;28;20203;-84
2021/08/09 01:30:45;;;;;;;4.00;1.80;;;;;;;;;;5042222;28;20197;-85
2021/08/09 01:33:12;;;;;;;5.25;1.55;;;;;;;;;;5040923;28;20224;-85
2021/08/09 01:35:38;;;;;;;2.72;1.50;;;;;;;;;;5031301;28;20177;-84
2021/08/09 01:38:05;;;;;;;3.17;1.52;;;;;;;;;;5043806;28;20174;-85
2021/08/09 01:40:32;;;;;;;3.03;1.40;;;;;;;;;;5045106;28;20231;-86
2021/08/09 01:42:58;;;;;;;1.60;1.30;;;;;;;;;;5034786;28;20190;-85
2021/08/09 01:45:25;;;;;;;1.70;1.60;;;;;;;;;;5039107;28;20204;-85
2021/08/09 01:47:51;;;;;;;2.45;1.60;;;;;;;;;;5046114;28;20259;-85
2021/08/09 01:50:17;;;;;;;3.38;1.52;;;;;;;;;;5044496;28;20260;-85
2021/08/09 01:52:44;;;;;;;4.75;2.20;;;;;;;;;;5043655;28;20200;-85
2021/08/09 01:55:12;;;;;;;3.55;1.63;;;;;;;;;;5032389;28;20184;-85
2021/08/09 01:57:38;;;;;;;3.25;1.73;;;;;;;;;;5036308;28;20199;-85
2021/08/09 02:00:08;;;;;;;3.78;1.70;;;;;;;;;;5043905;28;20188;-85
2021/08/09 02:02:35;;;;;;;5.30;1.70;;;;;;;;;;5072851;28;20242;-85
2021/08/09 02:05:19;;;;;;;2.95;1.75;;;;;;;;;;5024715;28;20173;-85
2021/08/09 02:07:46;;;;;;;3.38;1.70;;;;;;;;;;5039615;28;20177;-85
2021/08/09 02:10:25;;;;;;;3.60;1.33;;;;;;;;;;5044994;28;20262;-85
2021/08/09 02:12:57;;;;;;;2.13;1.92;;;;;;;;;;5043256;28;20218;-85
2021/08/09 02:15:36;;;;;;;2.38;1.90;;;;;;;;;;5044104;28;20276;-84
2021/08/09 02:18:14;;;;;;;3.90;1.63;;;;;;;;;;5045891;28;20228;-85
2021/08/09 02:20:41;;;;;;;3.65;1.45;;;;;;;;;;5044485;28;20189;-85
2021/08/09 02:23:11;;;;;;;3.15;1.50;;;;;;;;;;5027568;28;20323;-85
2021/08/09 02:25:39;;;;;;;3.30;1.73;;;;;;;;;;5038873;28;20227;-84
2021/08/09 02:28:24;;;;;;;5.22;1.95;;;;;;;;;;5045347;28;20224;-85
2021/08/09 02:30:52;;;;;;;3.53;1.38;;;;;;;;;;5043637;28;20216;-85
2021/08/09 02:33:19;;;;;;;2.88;1.80;;;;;;;;;;5038930;28;20228;-84
2021/08/09 02:35:46;;;;;;;3.65;1.85;;;;;;;;;;5032949;28;20196;-85
2021/08/09 02:38:12;;;;;;;2.80;1.50;;;;;;;;;;5041829;28;20240;-85
2021/08/09 02:40:38;;;;;;;2.00;1.77;;;;;;;;;;5029348;28;20578;-85
2021/08/09 02:43:05;;;;;;;3.45;1.75;;;;;;;;;;5032507;28;20246;-84
2021/08/09 02:45:31;;;;;;;4.45;1.70;;;;;;;;;;5032633;28;20199;-85
2021/08/09 02:47:57;;;;;;;2.95;1.60;;;;;;;;;;5032169;28;20237;-85
2021/08/09 02:50:23;;;;;;;4.00;1.52;;;;;;;;;;5029245;28;20270;-85
2021/08/09 02:52:50;;;;;;;2.83;1.50;;;;;;;;;;5035585;28;20602;-85
2021/08/09 02:55:17;;;;;;;2.75;1.50;;;;;;;;;;5031033;28;20188;-84
2021/08/09 02:57:44;;;;;;;1.40;1.30;;;;;;;;;;5036400;28;20209;-85
2021/08/09 03:00:10;;;;;;;2.55;1.52;;;;;;;;;;5042268;28;20179;-84
2021/08/09 03:02:38;;;;;;;3.25;1.50;;;;;;;;;;5033229;28;20186;-85
2021/08/09 03:05:06;;;;;;;2.65;1.65;;;;;;;;;;5030594;28;20286;-84
2021/08/09 03:07:34;;;;;;;2.20;1.70;;;;;;;;;;5033906;28;20242;-85
2021/08/09 03:10:01;;;;;;;2.33;1.60;;;;;;;;;;5035612;28;20183;-85
2021/08/09 03:12:27;;;;;;;3.70;1.55;;;;;;;;;;5033391;28;20182;-84
2021/08/09 03:14:53;;;;;;;1.77;1.40;;;;;;;;;;5037507;28;20187;-85
2021/08/09 03:17:19;;;;;;;2.17;1.30;;;;;;;;;;5047822;28;20650;-85
2021/08/09 03:19:45;;;;;;;2.83;1.60;;;;;;;;;;5040922;28;20230;-85
2021/08/09 03:22:11;;;;;;;3.30;1.83;;;;;;;;;;5044646;28;20186;-84
2021/08/09 03:24:37;;;;;;;1.80;1.67;;;;;;;;;;5044268;28;20443;-84
2021/08/09 03:27:04;;;;;;;1.95;1.45;;;;;;;;;;5047827;28;20183;-84
2021/08/09 03:29:30;;;;;;;3.17;1.35;;;;;;;;;;5043659;28;20618;-85
2021/08/09 03:31:56;;;;;;;1.83;1.70;;;;;;;;;;5030077;28;20204;-84
2021/08/09 03:34:22;;;;;;;3.67;1.73;;;;;;;;;;5040750;28;20339;-85
2021/08/09 03:36:51;;;;;;;6.47;1.88;;;;;;;;;;5047113;28;20201;-85
2021/08/09 03:39:17;;;;;;;5.53;1.85;;;;;;;;;;5044320;28;20191;-84
2021/08/09 03:41:43;;;;;;;3.40;1.90;;;;;;;;;;5035808;28;20188;-85
2021/08/09 03:44:09;;;;;;;3.10;1.73;;;;;;;;;;5045402;28;20514;-85
2021/08/09 03:46:35;;;;;;;3.35;1.85;;;;;;;;;;5031860;28;20483;-85
2021/08/09 03:49:07;;;;;;;4.90;1.80;;;;;;;;;;5044239;28;20656;-84
2021/08/09 03:51:34;;;;;;;4.72;1.77;;;;;;;;;;5040140;28;20658;-85
2021/08/09 03:54:00;;;;;;;3.88;2.03;;;;;;;;;;5034589;28;20229;-84
2021/08/09 03:56:26;;;;;;;2.60;1.45;;;;;;;;;;5046558;28;20192;-85
2021/08/09 03:58:52;;;;;;;4.13;1.93;;;;;;;;;;5045503;28;20175;-85
2021/08/09 04:01:18;;;;;;;3.15;1.80;;;;;;;;;;5034043;28;20410;-84
2021/08/09 04:03:44;;;;;;;2.42;1.48;;;;;;;;;;5042236;28;20194;-84
2021/08/09 04:06:10;;;;;;;3.95;2.13;;;;;;;;;;5045623;28;20641;-84
2021/08/09 04:08:40;;;;;;;4.53;2.20;;;;;;;;;;5047276;28;20194;-84
2021/08/09 04:11:06;;;;;;;6.25;1.52;;;;;;;;;;5029202;28;20636;-83
2021/08/09 04:13:32;;;;;;;4.60;2.03;;;;;;;;;;5046807;28;20219;-85
2021/08/09 04:15:58;;;;;;;3.55;2.03;;;;;;;;;;5046783;28;20508;-85
2021/08/09 04:18:24;;;;;;;3.30;1.80;;;;;;;;;;5040964;28;20225;-83
2021/08/09 04:20:50;;;;;;;2.60;1.90;;;;;;;;;;5034417;28;20177;-83
2021/08/09 04:23:16;;;;;;;6.88;2.00;;;;;;;;;;5025789;28;20224;-84
2021/08/09 04:25:42;;;;;;;3.10;1.83;;;;;;;;;;5044534;28;20178;-85
2021/08/09 04:28:08;;;;;;;5.10;2.10;;;;;;;;;;5035016;28;20450;-84
2021/08/09 04:30:34;;;;;;;4.80;1.85;;;;;;;;;;5034520;28;20442;-84
2021/08/09 04:33:02;;;;;;;2.77;1.80;;;;;;;;;;5034586;28;20214;-85
2021/08/09 04:35:28;;;;;;;3.88;2.00;;;;;;;;;;5045513;28;20458;-85
2021/08/09 04:37:54;;;;;;;2.00;1.80;;;;;;;;;;5027647;28;20182;-84
2021/08/09 04:40:20;;;;;;;3.53;1.90;;;;;;;;;;5047226;28;20172;-85
2021/08/09 04:42:46;;;;;;;5.13;1.83;;;;;;;;;;5036137;28;20428;-84
2021/08/09 04:45:12;;;;;;;4.50;2.30;;;;;;;;;;5038604;28;20455;-85
2021/08/09 04:47:38;;;;;;;4.20;2.00;;;;;;;;;;5042661;28;20498;-85
2021/08/09 04:50:05;;;;;;;2.20;1.60;;;;;;;;;;5026786;28;20430;-85
2021/08/09 04:52:31;;;;;;;5.50;1.90;;;;;;;;;;5046855;28;20664;-85
2021/08/09 04:54:57;;;;;;;3.35;2.22;;;;;;;;;;5043834;28;20193;-84
2021/08/09 04:57:23;;;;;;;4.50;2.22;;;;;;;;;;5045928;28;20209;-85
2021/08/09 04:59:49;;;;;;;7.10;2.03;;;;;;;;;;5044779;28;20637;-85
2021/08/09 05:02:15;;;;;;;2.90;2.05;;;;;;;;;;5043212;28;20477;-84
2021/08/09 05:04:41;;;;;;;1.90;1.80;;;;;;;;;;5027167;28;20170;-84
2021/08/09 05:07:08;;;;;;;3.33;2.07;;;;;;;;;;5045816;28;20430;-85
2021/08/09 05:09:34;;;;;;;4.35;2.20;;;;;;;;;;5039376;28;20487;-85
2021/08/09 05:12:00;;;;;;;5.03;2.13;;;;;;;;;;5035993;28;20178;-85
2021/08/09 05:14:26;;;;;;;3.25;1.95;;;;;;;;;;5028998;28;20205;-85
2021/08/09 05:16:52;;;;;;;3.78;2.30;;;;;;;;;;5040684;28;20230;-83
2021/08/09 05:19:18;;;;;;;6.53;2.22;;;;;;;;;;5032277;28;20681;-85
2021/08/09 05:21:44;;;;;;;4.68;2.15;;;;;;;;;;5041932;28;20192;-85
2021/08/09 05:24:10;;;;;;;2.55;1.92;;;;;;;;;;5042749;28;20190;-85
2021/08/09 05:26:36;;;;;;;4.30;1.90;;;;;;;;;;5045223;28;20187;-85
2021/08/09 05:29:02;;;;;;;2.63;1.65;;;;;;;;;;5045273;28;20900;-85
2021/08/09 05:31:29;;;;;;;2.95;2.03;;;;;;;;;;5046236;28;20591;-85
2021/08/09 05:33:58;;;;;;;3.42;2.20;;;;;;;;;;5033142;28;20235;-85
2021/08/09 05:36:24;;;;;;;3.17;1.60;;;;;;;;;;5037990;28;20179;-85
2021/08/09 05:38:50;;;;;;;4.28;2.50;;;;;;;;;;5043166;28;20250;-85
2021/08/09 05:41:16;;;;;;;3.42;2.05;;;;;;;;;;5044106;28;20192;-85
2021/08/09 05:43:42;;;;;;;2.97;2.08;;;;;;;;;;5027265;28;20173;-85
2021/08/09 05:46:08;;;;;;;5.53;2.33;;;;;;;;;;5041194;28;20264;-85
2021/08/09 05:48:34;;;;;;;3.50;1.97;;;;;;;;;;5044952;28;20227;-85
2021/08/09 05:51:00;;;;;;;3.25;1.90;;;;;;;;;;5042830;28;20437;-85
2021/08/09 05:53:27;;;;;;;3.93;1.87;;;;;;;;;;5029664;28;20608;-85
2021/08/09 05:55:54;;;;;;;4.90;2.00;;;;;;;;;;5043581;28;20447;-84
2021/08/09 05:58:20;;;;;;;4.70;3.38;;;;;;;;;;5034397;28;20176;-85
2021/08/09 06:00:46;;;;;;;3.60;2.00;;;;;;;;;;5040085;28;20192;-85
2021/08/09 06:03:16;;;;;;;4.22;2.53;;;;;;;;;;5044610;28;20276;-85
2021/08/09 06:05:42;;;;;;;4.40;2.10;;;;;;;;;;5043512;28;20174;-85
2021/08/09 06:08:08;;;;;;;4.70;1.75;;;;;;;;;;5027005;28;20651;-85
2021/08/09 06:10:34;;;;;;;7.23;2.30;;;;;;;;;;5024251;28;20187;-85
2021/08/09 06:13:01;;;;;;;9.85;2.72;;;;;;;;;;5031365;28;20532;-85
2021/08/09 06:15:27;;;;;;;5.35;2.10;;;;;;;;;;5038259;28;20194;-84
2021/08/09 06:17:53;;;;;;;4.87;2.07;;;;;;;;;;5042445;28;20232;-85
2021/08/09 06:20:19;;;;;;;6.47;1.73;;;;;;;;;;5029266;28;20435;-85
2021/08/09 06:22:45;;;;;;;3.88;2.05;;;;;;;;;;5028328;28;20228;-85
2021/08/09 06:25:11;;;;;;;3.93;2.10;;;;;;;;;;5042419;28;20191;-86
2021/08/09 06:27:40;;;;;;;3.85;1.85;;;;;;;;;;5045240;28;20452;-85
2021/08/09 06:30:06;;;;;;;4.53;1.92;;;;;;;;;;5044169;28;20677;-85
2021/08/09 06:32:32;;;;;;;8.00;2.35;;;;;;;;;;5045143;28;20189;-86
2021/08/09 06:34:58;;;;;;;6.00;2.43;;;;;;;;;;5043654;28;20201;-86
2021/08/09 06:37:24;;;;;;;4.53;1.70;;;;;;;;;;5035826;28;20413;-85
2021/08/09 06:39:50;;;;;;;4.65;2.20;;;;;;;;;;5046821;28;20495;-85
2021/08/09 06:42:16;;;;;;;6.33;2.47;;;;;;;;;;5049246;28;20189;-84
2021/08/09 06:44:42;;;;;;;9.60;2.42;;;;;;;;;;5047953;28;20440;-85
2021/08/09 06:47:08;;;;;;;6.78;3.00;;;;;;;;;;5047642;28;20178;-84
2021/08/09 06:49:34;;;;;;;4.53;2.03;;;;;;;;;;5032612;28;20189;-85
2021/08/09 06:52:00;;;;;;;5.35;2.33;;;;;;;;;;5037283;28;20546;-85
2021/08/09 06:54:26;;;;;;;3.58;2.20;;;;;;;;;;5040414;28;20216;-84
2021/08/09 06:56:52;;;;;;;4.25;2.78;;;;;;;;;;5049653;28;20182;-86
2021/08/09 06:59:18;;;;;;;6.40;2.67;;;;;;;;;;5045208;28;20181;-86
2021/08/09 07:01:45;;;;;;;6.30;2.40;;;;;;;;;;5046455;28;20649;-87
2021/08/09 07:04:11;;;;;;;6.68;3.15;;;;;;;;;;5044381;28;20201;-86
2021/08/09 07:06:37;;;;;;;7.13;2.63;;;;;;;;;;5048674;28;20192;-87
2021/08/09 07:09:04;;;;;;;9.00;2.80;;;;;;;;;;5046654;28;20194;-87
2021/08/09 07:11:30;;;;;;;8.50;2.78;;;;;;;;;;5030494;28;20197;-87
2021/08/09 07:13:56;;;;;;;2.53;1.88;;;;;;;;;;5029605;28;20213;-85
2021/08/09 07:16:25;;;;;;;8.65;3.00;;;;;;;;;;5051358;28;20198;-87
2021/08/09 07:18:52;;;;;;;4.05;2.50;;;;;;;;;;5035924;28;20272;-87
2021/08/09 07:21:18;;;;;;;7.22;2.88;;;;;;;;;;5038523;28;20201;-86
2021/08/09 07:23:44;;;;;;;7.70;2.88;;;;;;;;;;5047745;28;20208;-87
2021/08/09 07:26:10;;;;;;;4.00;2.50;;;;;;;;;;5046522;28;20220;-87
2021/08/09 07:28:36;;;;;;;3.63;2.17;;;;;;;;;;5030430;28;20437;-86
2021/08/09 07:31:02;;;;;;;6.40;2.88;;;;;;;;;;5036295;28;20245;-88
2021/08/09 07:33:28;;;;;;;7.00;3.03;;;;;;;;;;5038054;28;20200;-86
2021/08/09 07:35:54;;;;;;;3.22;2.67;;;;;;;;;;5046709;28;20178;-86
2021/08/09 07:38:20;;;;;;;8.43;2.63;;;;;;;;;;5046117;28;20251;-87
2021/08/09 07:40:46;;;;;;;3.95;2.53;;;;;;;;;;5031229;28;20409;-87
2021/08/09 07:43:12;;;;;;;4.43;2.10;;;;;;;;;;5044495;28;20190;-86
2021/08/09 07:45:38;;;;;;;5.97;2.67;;;;;;;;;;5047071;28;20216;-86
2021/08/09 07:48:04;;;;;;;7.72;2.30;;;;;;;;;;5045833;28;20185;-86
2021/08/09 07:50:31;;;;;;;5.38;2.58;;;;;;;;;;5032481;28;20186;-86
2021/08/09 07:52:57;;;;;;;6.00;2.30;;;;;;;;;;5030781;28;20178;-86
2021/08/09 07:55:25;;;;;;;5.78;2.40;;;;;;;;;;5032245;28;20198;-87
2021/08/09 07:57:51;;;;;;;4.90;2.75;;;;;;;;;;5045156;28;20174;-87
2021/08/09 08:00:17;;;;;;;3.30;2.10;;;;;;;;;;5046913;28;20208;-87
2021/08/09 08:02:43;;;;;;;4.22;2.35;;;;;;;;;;5044546;28;20413;-86
2021/08/09 08:05:10;;;;;;;5.63;2.65;;;;;;;;;;5028892;28;20261;-87
2021/08/09 08:07:36;;;;;;;6.68;2.72;;;;;;;;;;5046636;28;20200;-86
2021/08/09 08:10:02;;;;;;;5.43;3.28;;;;;;;;;;5045103;28;20189;-85
2021/08/09 08:12:29;;;;;;;5.15;3.67;;;;;;;;;;5046751;28;20174;-85
2021/08/09 08:14:55;;;;;;;20.15;3.60;;;;;;;;;;5046491;28;20232;-85
2021/08/09 08:17:23;;;;;;;5.47;2.33;;;;;;;;;;5047351;28;20182;-85
2021/08/09 08:19:49;;;;;;;8.13;3.35;;;;;;;;;;5043661;28;20256;-86
2021/08/09 08:22:16;;;;;;;4.95;2.90;;;;;;;;;;5047987;28;20186;-86
2021/08/09 08:24:42;;;;;;;7.60;2.92;;;;;;;;;;5044797;28;20204;-86
2021/08/09 08:27:08;;;;;;;5.40;3.58;;;;;;;;;;5045600;28;20652;-86
2021/08/09 08:29:34;;;;;;;8.95;3.13;;;;;;;;;;5040434;28;20193;-86
2021/08/09 08:32:00;;;;;;;3.05;2.40;;;;;;;;;;5042929;28;20181;-86
2021/08/09 08:34:26;;;;;;;5.70;2.83;;;;;;;;;;5033377;28;20209;-86
2021/08/09 08:36:52;;;;;;;6.80;2.60;;;;;;;;;;5041946;28;20182;-86
2021/08/09 08:39:18;;;;;;;5.13;2.78;;;;;;;;;;5039069;28;20920;-85
2021/08/09 08:41:45;;;;;;;3.40;2.55;;;;;;;;;;5043809;28;20247;-85
2021/08/09 08:44:16;;;;;;;5.07;3.25;;;;;;;;;;5028252;28;20193;-86
2021/08/09 08:46:42;;;;;;;7.07;3.25;;;;;;;;;;5029760;28;20240;-86
2021/08/09 08:49:13;;;;;;;6.30;2.55;;;;;;;;;;5032452;28;20185;-84
2021/08/09 08:51:41;;;;;;;7.50;2.55;;;;;;;;;;5033297;28;20293;-85
2021/08/09 08:54:07;;;;;;;6.18;2.50;;;;;;;;;;5034377;28;20208;-81
2021/08/09 08:56:36;;;;;;;5.35;3.10;;;;;;;;;;5030421;28;20182;-83
2021/08/09 08:59:03;;;;;;;7.20;2.90;;;;;;;;;;5044093;28;20289;-84
2021/08/09 09:01:37;;;;;;;6.72;2.78;;;;;;;;;;5030956;28;20623;-83
2021/08/09 09:04:21;;;;;;;7.00;3.25;;;;;;;;;;5040193;28;20185;-83
2021/08/09 09:06:47;;;;;;;4.05;2.83;;;;;;;;;;5042231;28;20189;-82
2021/08/09 09:09:21;;;;;;;5.82;3.10;;;;;;;;;;5044772;28;20560;-85
2021/08/09 09:11:47;;;;;;;8.55;3.10;;;;;;;;;;5045962;28;20186;-84
2021/08/09 09:14:13;;;;;;;3.72;2.50;;;;;;;;;;5042413;28;20285;-83
2021/08/09 09:16:44;;;;;;;3.87;2.50;;;;;;;;;;5042663;28;20182;-82
2021/08/09 09:19:10;;;;;;;3.60;2.30;;;;;;;;;;5032745;28;20465;-84
2021/08/09 09:21:37;;;;;;;5.33;2.67;;;;;;;;;;5038235;28;20193;-83
2021/08/09 09:24:21;;;;;;;6.55;3.35;;;;;;;;;;5046754;28;20467;-85
2021/08/09 09:27:03;;;;;;;3.85;2.45;;;;;;;;;;5043973;28;20257;-83
2021/08/09 09:29:35;;;;;;;3.92;2.70;;;;;;;;;;5031306;28;20181;-83
2021/08/09 09:32:12;;;;;;;4.63;2.60;;;;;;;;;;5026364;28;20664;-85
2021/08/09 09:34:44;;;;;;;4.50;2.47;;;;;;;;;;5053527;28;20194;-85
2021/08/09 09:37:21;;;;;;;6.53;4.13;;;;;;;;;;5045540;28;20191;-84
2021/08/09 09:39:47;;;;;;;4.20;2.92;;;;;;;;;;5034831;28;20505;-84
2021/08/09 09:42:15;;;;;;;3.20;2.90;;;;;;;;;;5032972;28;20198;-86
2021/08/09 09:44:42;;;;;;;6.97;3.22;;;;;;;;;;5032402;28;20426;-85
2021/08/09 09:47:17;;;;;;;5.32;2.90;;;;;;;;;;5043495;28;20179;-85
2021/08/09 09:49:43;;;;;;;9.40;3.75;;;;;;;;;;5044222;28;20201;-85
2021/08/09 09:52:09;;;;;;;3.43;2.90;;;;;;;;;;5043406;28;20188;-83
2021/08/09 09:54:35;;;;;;;5.13;2.88;;;;;;;;;;5038240;28;20444;-84
2021/08/09 09:57:01;;;;;;;4.83;3.53;;;;;;;;;;5032823;28;20194;-84
2021/08/09 09:59:27;;;;;;;6.20;3.10;;;;;;;;;;5029325;28;20419;-82
2021/08/09 10:01:53;;;;;;;6.32;3.80;;;;;;;;;;5043083;28;20269;-85
2021/08/09 10:04:20;;;;;;;5.17;3.40;;;;;;;;;;5033837;28;20658;-84
2021/08/09 10:06:47;;;;;;;5.75;2.40;;;;;;;;;;5032370;28;20437;-85
2021/08/09 10:09:14;;;;;;;5.38;3.75;;;;;;;;;;5035790;28;20190;-84
2021/08/09 10:11:43;;;;;;;3.97;2.60;;;;;;;;;;5045219;28;20735;-84
2021/08/09 10:14:10;;;;;;;5.80;2.55;;;;;;;;;;5031126;28;20219;-84
2021/08/09 10:16:37;;;;;;;2.67;2.47;;;;;;;;;;5048701;28;20200;-84
2021/08/09 10:19:04;;;;;;;4.70;2.33;;;;;;;;;;5046437;28;20288;-83
2021/08/09 10:21:31;;;;;;;5.90;2.47;;;;;;;;;;5046781;28;20187;-85
2021/08/09 10:23:58;;;;;;;3.17;2.60;;;;;;;;;;5046430;28;20251;-84
2021/08/09 10:26:30;;;;;;;3.88;3.25;;;;;;;;;;5048566;28;20196;-83
2021/08/09 10:28:55;;;;;;;3.97;2.25;;;;;;;;;;5030923;28;20174;-83
2021/08/09 10:31:22;;;;;;;2.63;2.23;;;;;;;;;;5049888;28;20315;-84
2021/08/09 10:33:52;;;;;;;5.20;2.30;;;;;;;;;;5048550;28;20933;-84
2021/08/09 10:36:21;;;;;;;5.32;2.65;;;;;;;;;;5046173;28;20430;-84
2021/08/09 10:38:48;;;;;;;2.70;2.37;;;;;;;;;;5048673;28;20209;-83
2021/08/09 10:41:14;;;;;;;3.63;2.10;;;;;;;;;;5048129;28;20424;-84
2021/08/09 10:44:18;;;;;;;3.10;2.23;;;;;;;;;;5048385;28;20382;-83
2021/08/09 10:46:44;;;;;;;5.60;2.00;;;;;;;;;;4989912;28;20427;-84
2021/08/09 10:49:30;;;;;;;7.50;2.30;;;;;;;;;;4999073;28;20447;-83
2021/08/09 10:51:56;;;;;;;3.47;2.07;;;;;;;;;;5000661;28;20206;-85
2021/08/09 10:54:34;;;;;;;4.67;2.03;;;;;;;;;;5005607;28;20440;-85
2021/08/09 10:57:01;;;;;;;3.53;2.20;;;;;;;;;;4999690;28;20420;-84
2021/08/09 10:59:42;;;;;;;2.45;1.60;;;;;;;;;;5004421;28;20225;-85
2021/08/09 11:02:20;;;;;;;3.75;2.00;;;;;;;;;;4988759;28;20571;-84
2021/08/09 11:05:05;;;;;;;2.40;1.60;;;;;;;;;;4988258;28;20262;-83
2021/08/09 11:07:31;;;;;;;2.33;1.90;;;;;;;;;;4990699;28;20522;-84
2021/08/09 11:09:57;;;;;;;3.85;1.77;;;;;;;;;;4997662;28;20486;-83
2021/08/09 11:12:27;;;;;;;2.00;1.80;;;;;;;;;;5006570;28;20187;-85
2021/08/09 11:15:11;;;;;;;3.07;1.70;;;;;;;;;;5022482;28;20299;-85
2021/08/09 11:17:40;;;;;;;1.87;1.77;;;;;;;;;;5029436;28;20411;-84
2021/08/09 11:20:12;;;;;;;3.88;1.70;;;;;;;;;;5043656;28;20465;-83
2021/08/09 11:22:43;;;;;;;2.20;2.10;;;;;;;;;;5031710;28;20169;-84
2021/08/09 11:25:28;;;;;;;3.87;2.07;;;;;;;;;;5036274;28;20371;-84
2021/08/09 11:27:57;;;;;;;3.27;2.20;;;;;;;;;;5035463;28;20420;-84
2021/08/09 11:30:31;;;;;;;2.07;1.77;;;;;;;;;;5041526;28;20447;-84
2021/08/09 11:32:57;;;;;;;4.70;2.17;;;;;;;;;;5047951;28;20436;-84
2021/08/09 11:35:23;;;;;;;2.33;2.10;;;;;;;;;;5045568;28;20190;-84
2021/08/09 11:38:03;;;;;;;1.75;1.27;;;;;;;;;;5046832;28;20383;-84
2021/08/09 11:40:35;;;;;;;7.13;2.20;;;;;;;;;;5041209;28;20184;-85
2021/08/09 11:43:01;;;;;;;2.33;1.70;;;;;;;;;;5037087;28;20422;-84
2021/08/09 11:45:28;;;;;;;4.40;2.33;;;;;;;;;;5036734;28;20429;-84
2021/08/09 11:47:54;;;;;;;4.20;2.20;;;;;;;;;;5034581;28;20463;-84
2021/08/09 11:50:21;;;;;;;1.90;1.60;;;;;;;;;;5032613;28;20426;-84
2021/08/09 11:52:47;;;;;;;3.13;1.80;;;;;;;;;;5041796;28;20465;-85
2021/08/09 11:55:18;;;;;;;2.80;1.70;;;;;;;;;;5048535;28;20443;-85
2021/08/09 11:57:44;;;;;;;1.90;1.70;;;;;;;;;;5045047;28;20399;-84
2021/08/09 12:00:11;;;;;;;2.77;1.70;;;;;;;;;;5046303;28;20471;-83
2021/08/09 12:02:57;;;;;;;2.73;2.17;;;;;;;;;;5047611;28;20428;-82
2021/08/09 12:05:25;;;;;;;2.07;1.80;;;;;;;;;;5047197;28;20414;-82
2021/08/09 12:07:58;;;;;;;2.47;1.67;;;;;;;;;;5043468;28;20437;-82
2021/08/09 12:10:25;;;;;;;2.40;1.50;;;;;;;;;;5047475;28;20424;-83
2021/08/09 12:12:51;;;;;;;2.77;2.23;;;;;;;;;;5046099;28;20402;-81
2021/08/09 12:15:17;;;;;;;7.77;2.13;;;;;;;;;;5042698;28;20429;-80
2021/08/09 12:17:43;;;;;;;5.97;2.10;;;;;;;;;;5033504;28;20420;-81
2021/08/09 12:20:14;;;;;;;2.60;1.97;;;;;;;;;;5027946;28;20396;-82
2021/08/09 12:22:40;;;;;;;3.77;1.87;;;;;;;;;;5029493;28;20392;-81
2021/08/09 12:25:07;;;;;;;4.70;2.03;;;;;;;;;;5045128;28;20498;-81
2021/08/09 12:27:34;;;;;;;4.13;1.97;;;;;;;;;;5045932;28;20434;-82
2021/08/09 12:30:05;;;;;;;5.83;2.23;;;;;;;;;;5045319;28;20419;-82
2021/08/09 12:32:32;;;;;;;2.80;2.03;;;;;;;;;;5032305;28;20441;-82
2021/08/09 12:34:59;;;;;;;4.30;2.93;;;;;;;;;;5043839;28;20455;-81
2021/08/09 12:37:25;;;;;;;3.23;2.07;;;;;;;;;;5040156;28;20412;-80
2021/08/09 12:39:51;;;;;;;2.40;1.83;;;;;;;;;;5047232;28;20476;-81
2021/08/09 12:42:21;;;;;;;2.27;1.90;;;;;;;;;;5040422;28;20436;-81
2021/08/09 12:44:52;;;;;;;2.80;2.03;;;;;;;;;;5034858;28;20436;-82
2021/08/09 12:47:18;;;;;;;2.57;1.67;;;;;;;;;;5042704;28;20458;-81
2021/08/09 12:49:44;;;;;;;2.17;1.77;;;;;;;;;;5028659;28;20476;-81
2021/08/09 12:52:10;;;;;;;3.20;1.83;;;;;;;;;;5043491;28;20447;-82
2021/08/09 12:54:36;;;;;;;3.77;1.73;;;;;;;;;;5037865;28;20459;-81
2021/08/09 12:57:03;;;;;;;2.83;2.20;;;;;;;;;;5032370;28;20440;-82
2021/08/09 12:59:29;;;;;;;3.43;1.90;;;;;;;;;;5029477;28;20701;-82
2021/08/09 13:01:55;;;;;;;4.00;2.03;;;;;;;;;;5027578;28;20626;-82
2021/08/09 13:04:21;;;;;;;3.20;2.07;;;;;;;;;;5045362;28;20890;-78
2021/08/09 13:06:47;;;;;;;2.07;1.80;;;;;;;;;;5044807;28;20445;-82
2021/08/09 13:09:13;;;;;;;1.67;1.57;;;;;;;;;;5043724;28;20517;-83
2021/08/09 13:11:40;;;;;;;2.70;1.60;;;;;;;;;;5042576;28;20463;-81
2021/08/09 13:14:06;;;;;;;3.83;2.20;;;;;;;;;;5027989;28;20486;-83
2021/08/09 13:16:34;;;;;;;3.17;2.50;;;;;;;;;;5030823;28;20422;-82
2021/08/09 13:19:00;;;;;;;2.30;1.73;;;;;;;;;;5033414;28;20455;-81
2021/08/09 13:21:26;;;;;;;4.30;2.43;;;;;;;;;;5036756;28;20432;-82
2021/08/09 13:23:52;;;;;;;3.97;1.97;;;;;;;;;;5046074;28;20446;-82
2021/08/09 13:26:18;;;;;;;2.80;1.80;;;;;;;;;;5045154;28;20437;-82
2021/08/09 13:28:44;;;;;;;5.43;1.70;;;;;;;;;;5042891;28;20429;-82
2021/08/09 13:31:10;;;;;;;3.47;2.53;;;;;;;;;;5045459;28;20474;-81
2021/08/09 13:33:36;;;;;;;2.87;2.13;;;;;;;;;;5043587;28;20460;-82
2021/08/09 13:36:04;;;;;;;6.07;2.30;;;;;;;;;;5046223;28;20410;-81
2021/08/09 13:38:33;;;;;;;3.57;1.97;;;;;;;;;;5046225;28;20442;-82
2021/08/09 13:40:59;;;;;;;3.00;2.00;;;;;;;;;;5042242;28;20411;-81
2021/08/09 13:43:25;;;;;;;2.00;1.70;;;;;;;;;;5031798;28;20856;-81
2021/08/09 13:45:51;;;;;;;3.00;1.80;;;;;;;;;;5039285;28;20436;-81
2021/08/09 13:48:18;;;;;;;3.47;1.80;;;;;;;;;;5045776;28;20460;-82
2021/08/09 13:50:44;;;;;;;4.20;1.77;;;;;;;;;;5042788;28;20475;-82
2021/08/09 13:53:10;;;;;;;2.20;1.37;;;;;;;;;;5027965;28;20481;-82
2021/08/09 13:55:36;;;;;;;2.20;1.40;;;;;;;;;;5044046;28;20484;-82
2021/08/09 13:58:02;;;;;;;2.60;1.90;;;;;;;;;;5045644;28;20426;-83
2021/08/09 14:00:28;;;;;;;5.40;1.97;;;;;;;;;;5044835;28;20465;-81
2021/08/09 14:02:54;;;;;;;2.17;1.57;;;;;;;;;;5044167;28;20503;-81
2021/08/09 14:05:20;;;;;;;2.10;1.87;;;;;;;;;;5028244;28;20447;-82
2021/08/09 14:07:46;;;;;;;3.73;1.60;;;;;;;;;;5043740;28;20437;-82
2021/08/09 14:10:12;;;;;;;3.83;1.53;;;;;;;;;;5045222;28;20949;-83
2021/08/09 14:12:39;;;;;;;3.50;1.70;;;;;;;;;;5045913;28;20428;-82
2021/08/09 14:15:06;;;;;;;2.33;1.30;;;;;;;;;;5042135;28;20531;-81
2021/08/09 14:17:32;;;;;;;1.70;1.60;;;;;;;;;;5040961;28;20463;-82
2021/08/09 14:19:59;;;;;;;1.60;1.50;;;;;;;;;;5026934;28;20449;-80
2021/08/09 14:22:25;;;;;;;2.23;1.30;;;;;;;;;;5040068;28;20468;-83
2021/08/09 14:24:51;;;;;;;1.87;1.70;;;;;;;;;;5042841;28;20506;-81
2021/08/09 14:27:17;;;;;;;2.47;1.80;;;;;;;;;;5045742;28;20442;-83
2021/08/09 14:29:44;;;;;;;2.93;2.03;;;;;;;;;;5043169;28;20514;-83
2021/08/09 14:32:10;;;;;;;2.63;1.60;;;;;;;;;;5042743;28;20415;-81
2021/08/09 14:34:36;;;;;;;3.37;1.60;;;;;;;;;;5028958;28;20460;-81
2021/08/09 14:37:03;;;;;;;4.20;1.70;;;;;;;;;;5043771;28;20438;-82
2021/08/09 14:39:29;;;;;;;2.30;1.60;;;;;;;;;;5039102;28;20446;-81
2021/08/09 14:41:55;;;;;;;3.13;1.73;;;;;;;;;;5033973;28;20433;-83
2021/08/09 14:44:21;;;;;;;4.10;1.57;;;;;;;;;;5042276;28;20443;-81
2021/08/09 14:46:47;;;;;;;2.40;1.60;;;;;;;;;;5039892;28;20414;-81